createdAt,value
2022-09-18T00:00:57.205Z,11.10
2022-09-18T00:03:24.086Z,11.10
2022-09-18T00:05:51.777Z,11.10
2022-09-18T00:08:18.513Z,11.20
2022-09-18T00:10:46.651Z,11.20
2022-09-18T00:13:14.720Z,11.10
2022-09-18T00:15:41.402Z,11.10
2022-09-18T00:18:08.265Z,11.10
2022-09-18T00:20:35.692Z,11.20
2022-09-18T00:23:02.419Z,11.20
2022-09-18T00:25:29.625Z,11.10
2022-09-18T00:27:56.324Z,11.10
2022-09-18T00:30:23.060Z,11.20
2022-09-18T00:32:49.740Z,11.20
2022-09-18T00:35:17.618Z,11.20
2022-09-18T00:37:44.601Z,11.20
2022-09-18T00:40:11.348Z,11.10
2022-09-18T00:42:38.192Z,11.10
2022-09-18T00:45:05.589Z,11.10
2022-09-18T00:47:32.380Z,11.10
2022-09-18T00:50:09.627Z,11.10
2022-09-18T00:52:45.929Z,11.10
2022-09-18T00:55:12.643Z,11.10
2022-09-18T00:57:42.746Z,11.10
2022-09-18T01:00:12.558Z,11.00
2022-09-18T01:02:43.237Z,11.00
2022-09-18T01:05:10.115Z,11.00
2022-09-18T01:08:01.109Z,10.90
2022-09-18T01:11:06.541Z,10.90
2022-09-18T01:13:48.656Z,10.90
2022-09-18T01:16:22.977Z,10.80
2022-09-18T01:19:11.057Z,10.80
2022-09-18T01:21:43.575Z,10.80
2022-09-18T01:24:46.154Z,10.80
2022-09-18T01:27:24.005Z,10.90
2022-09-18T01:30:04.650Z,10.90
2022-09-18T01:32:43.415Z,10.90
2022-09-18T01:35:40.089Z,10.90
2022-09-18T01:38:08.341Z,10.90
2022-09-18T01:40:40.849Z,10.90
2022-09-18T01:43:09.131Z,10.90
2022-09-18T01:45:46.721Z,10.90
2022-09-18T01:48:22.705Z,10.90
2022-09-18T01:51:04.853Z,10.90
2022-09-18T01:53:34.085Z,10.90
2022-09-18T01:56:08.500Z,10.90
2022-09-18T01:58:35.399Z,10.90
2022-09-18T02:01:05.705Z,10.80
2022-09-18T02:03:38.251Z,10.80
2022-09-18T02:06:23.612Z,10.80
2022-09-18T02:08:51.083Z,10.80
2022-09-18T02:11:18.953Z,10.70
2022-09-18T02:14:00.614Z,10.70
2022-09-18T02:16:45.918Z,10.70
2022-09-18T02:19:18.486Z,10.70
2022-09-18T02:21:45.916Z,10.70
2022-09-18T02:24:12.672Z,10.70
2022-09-18T02:26:39.895Z,10.70
2022-09-18T02:29:07.258Z,10.60
2022-09-18T02:31:34.149Z,10.60
2022-09-18T02:34:00.968Z,10.60
2022-09-18T02:37:10.621Z,10.50
2022-09-18T02:39:46.229Z,10.50
2022-09-18T02:42:30.020Z,10.50
2022-09-18T02:45:15.527Z,10.50
2022-09-18T02:47:42.228Z,10.40
2022-09-18T02:50:39.255Z,10.40
2022-09-18T02:53:29.198Z,10.40
2022-09-18T02:56:03.212Z,10.40
2022-09-18T02:58:36.027Z,10.30
2022-09-18T03:01:03.789Z,10.30
2022-09-18T03:03:31.572Z,10.30
2022-09-18T03:05:58.805Z,10.20
2022-09-18T03:08:25.602Z,10.20
2022-09-18T03:10:52.374Z,10.10
2022-09-18T03:13:19.139Z,10.10
2022-09-18T03:15:45.879Z,10.00
2022-09-18T03:18:12.609Z,10.00
2022-09-18T03:20:41.676Z,10.00
2022-09-18T03:23:09.014Z,10.00
2022-09-18T03:25:35.896Z,10.00
2022-09-18T03:28:02.692Z,9.90
2022-09-18T03:30:29.432Z,9.90
2022-09-18T03:32:56.123Z,9.90
2022-09-18T03:35:22.842Z,9.90
2022-09-18T03:37:49.723Z,9.90
2022-09-18T03:40:16.591Z,9.90
2022-09-18T03:42:44.658Z,9.90
2022-09-18T03:45:12.091Z,9.90
2022-09-18T03:47:39.000Z,9.90
2022-09-18T03:50:06.987Z,9.80
2022-09-18T03:52:34.113Z,9.80
2022-09-18T03:55:00.807Z,9.80
2022-09-18T03:57:27.480Z,9.80
2022-09-18T03:59:54.433Z,9.80
2022-09-18T04:02:21.144Z,9.80
2022-09-18T04:04:47.825Z,9.80
2022-09-18T04:07:14.702Z,9.80
2022-09-18T04:09:41.533Z,9.80
2022-09-18T04:12:08.217Z,9.90
2022-09-18T04:14:34.871Z,9.90
2022-09-18T04:17:01.601Z,10.00
2022-09-18T04:19:28.694Z,9.90
2022-09-18T04:21:55.380Z,9.90
2022-09-18T04:24:22.076Z,9.90
2022-09-18T04:26:50.063Z,9.90
2022-09-18T04:29:16.849Z,9.90
2022-09-18T04:31:43.841Z,9.80
2022-09-18T04:34:10.616Z,9.80
2022-09-18T04:36:37.462Z,9.80
2022-09-18T04:39:04.351Z,9.80
2022-09-18T04:41:31.094Z,9.80
2022-09-18T04:43:57.852Z,9.80
2022-09-18T04:46:24.636Z,9.80
2022-09-18T04:48:51.444Z,9.80
2022-09-18T04:51:18.192Z,9.70
2022-09-18T04:53:44.905Z,9.70
2022-09-18T04:56:11.604Z,9.70
2022-09-18T04:58:38.418Z,9.60
2022-09-18T05:01:05.137Z,9.60
2022-09-18T05:03:31.884Z,9.60
2022-09-18T05:05:58.624Z,9.60
2022-09-18T05:08:25.397Z,9.60
2022-09-18T05:10:52.160Z,9.60
2022-09-18T05:13:18.915Z,9.50
2022-09-18T05:15:45.682Z,9.50
2022-09-18T05:18:12.790Z,9.50
2022-09-18T05:20:39.644Z,9.40
2022-09-18T05:23:07.124Z,9.40
2022-09-18T05:25:33.845Z,9.40
2022-09-18T05:28:01.529Z,9.40
2022-09-18T05:30:28.333Z,9.40
2022-09-18T05:33:05.392Z,9.30
2022-09-18T05:35:33.342Z,9.30
2022-09-18T05:38:00.101Z,9.30
2022-09-18T05:40:31.046Z,9.20
2022-09-18T05:42:58.268Z,9.30
2022-09-18T05:45:25.092Z,9.30
2022-09-18T05:47:59.096Z,9.30
2022-09-18T05:50:26.674Z,9.30
2022-09-18T05:53:03.396Z,9.20
2022-09-18T05:55:31.913Z,9.20
2022-09-18T05:57:59.697Z,9.20
2022-09-18T06:00:26.987Z,9.20
2022-09-18T06:02:55.455Z,9.10
2022-09-18T06:05:23.537Z,9.10
2022-09-18T06:07:50.933Z,9.10
2022-09-18T06:10:21.103Z,9.10
2022-09-18T06:12:47.760Z,9.10
2022-09-18T06:15:14.855Z,9.20
2022-09-18T06:17:41.722Z,9.20
2022-09-18T06:20:09.044Z,9.20
2022-09-18T06:22:36.425Z,9.30
2022-09-18T06:25:03.888Z,9.30
2022-09-18T06:27:31.824Z,9.30
2022-09-18T06:29:58.662Z,9.30
2022-09-18T06:32:25.348Z,9.30
2022-09-18T06:34:52.777Z,9.30
2022-09-18T06:37:19.522Z,9.40
2022-09-18T06:39:46.265Z,9.40
2022-09-18T06:42:12.935Z,9.40
2022-09-18T06:44:39.619Z,9.40
2022-09-18T06:47:06.938Z,9.50
2022-09-18T06:49:33.762Z,9.50
2022-09-18T06:52:00.582Z,9.60
2022-09-18T06:54:27.374Z,9.60
2022-09-18T06:56:54.173Z,9.60
2022-09-18T06:59:22.385Z,9.70
2022-09-18T07:01:49.183Z,9.70
2022-09-18T07:04:15.986Z,9.80
2022-09-18T07:06:46.399Z,9.80
2022-09-18T07:09:13.242Z,9.90
2022-09-18T07:11:40.039Z,9.90
2022-09-18T07:14:08.015Z,10.00
2022-09-18T07:16:35.330Z,10.10
2022-09-18T07:19:02.862Z,10.10
2022-09-18T07:21:29.853Z,10.20
2022-09-18T07:23:56.739Z,10.30
2022-09-18T07:26:23.645Z,10.40
2022-09-18T07:28:52.226Z,10.40
2022-09-18T07:31:19.254Z,10.50
2022-09-18T07:33:51.009Z,10.50
2022-09-18T07:36:17.890Z,10.50
2022-09-18T07:38:44.588Z,10.50
2022-09-18T07:41:11.314Z,10.60
2022-09-18T07:43:38.070Z,10.60
2022-09-18T07:46:04.879Z,10.70
2022-09-18T07:48:31.608Z,10.80
2022-09-18T07:50:58.543Z,10.80
2022-09-18T07:53:26.102Z,10.80
2022-09-18T07:55:54.091Z,10.90
2022-09-18T07:58:21.003Z,11.00
2022-09-18T08:00:47.721Z,11.30
2022-09-18T08:03:14.662Z,11.10
2022-09-18T08:05:42.103Z,11.20
2022-09-18T08:08:12.999Z,11.30
2022-09-18T08:10:40.790Z,11.40
2022-09-18T08:13:07.795Z,11.40
2022-09-18T08:15:34.589Z,11.50
2022-09-18T08:18:01.294Z,11.60
2022-09-18T08:20:28.093Z,11.70
2022-09-18T08:22:54.852Z,11.80
2022-09-18T08:25:21.665Z,11.90
2022-09-18T08:27:48.542Z,12.00
2022-09-18T08:30:16.218Z,12.10
2022-09-18T08:32:43.222Z,12.20
2022-09-18T08:35:10.945Z,12.40
2022-09-18T08:37:37.828Z,12.50
2022-09-18T08:40:05.586Z,12.60
2022-09-18T08:42:40.819Z,12.70
2022-09-18T08:45:11.916Z,12.80
2022-09-18T08:47:55.671Z,12.80
2022-09-18T08:50:25.060Z,13.00
2022-09-18T08:52:55.111Z,13.00
2022-09-18T08:55:27.345Z,13.00
2022-09-18T08:58:05.421Z,13.10
2022-09-18T09:00:42.148Z,13.10
2022-09-18T09:03:42.690Z,13.20
2022-09-18T09:06:47.635Z,13.30
2022-09-18T09:09:29.924Z,13.40
2022-09-18T09:12:17.246Z,13.70
2022-09-18T09:15:20.819Z,13.80
2022-09-18T09:18:05.515Z,14.00
2022-09-18T09:20:50.817Z,14.40
2022-09-18T09:23:29.769Z,14.50
2022-09-18T09:26:03.093Z,14.60
2022-09-18T09:28:48.865Z,14.60
2022-09-18T09:31:15.949Z,14.90
2022-09-18T09:34:20.242Z,15.10
2022-09-18T09:36:48.219Z,15.40
2022-09-18T09:39:26.912Z,15.60
2022-09-18T09:42:21.965Z,15.30
2022-09-18T09:45:14.522Z,15.10
2022-09-18T09:47:45.641Z,14.90
2022-09-18T09:50:46.772Z,14.90
2022-09-18T09:53:13.696Z,14.80
2022-09-18T09:56:07.755Z,14.70
2022-09-18T09:58:59.207Z,14.80
2022-09-18T10:01:35.115Z,14.90
2022-09-18T10:04:26.471Z,15.00
2022-09-18T10:06:56.523Z,15.10
2022-09-18T10:09:47.195Z,15.10
2022-09-18T10:12:33.847Z,15.00
2022-09-18T10:15:16.165Z,15.10
2022-09-18T10:17:42.941Z,15.10
2022-09-18T10:20:15.362Z,15.10
2022-09-18T10:22:42.039Z,15.20
2022-09-18T10:25:21.616Z,15.30
2022-09-18T10:27:48.499Z,15.40
2022-09-18T10:30:15.492Z,15.40
2022-09-18T10:32:42.275Z,15.30
2022-09-18T10:35:26.131Z,15.40
2022-09-18T10:37:52.840Z,15.50
2022-09-18T10:40:48.735Z,15.50
2022-09-18T10:43:18.723Z,15.70
2022-09-18T10:45:51.598Z,15.80
2022-09-18T10:48:25.711Z,15.80
2022-09-18T10:51:02.432Z,15.70
2022-09-18T10:53:30.981Z,15.80
2022-09-18T10:56:07.933Z,15.90
2022-09-18T10:58:34.700Z,16.00
2022-09-18T11:01:07.908Z,16.00
2022-09-18T11:03:42.020Z,15.90
2022-09-18T11:06:18.985Z,16.00
2022-09-18T11:08:48.174Z,16.00
2022-09-18T11:11:34.724Z,16.10
2022-09-18T11:14:02.933Z,16.30
2022-09-18T11:16:36.169Z,16.40
2022-09-18T11:19:12.784Z,16.50
2022-09-18T11:21:48.433Z,16.30
2022-09-18T11:24:26.660Z,16.30
2022-09-18T11:27:00.224Z,16.20
2022-09-18T11:29:32.855Z,16.30
2022-09-18T11:32:19.770Z,16.40
2022-09-18T11:34:51.521Z,16.40
2022-09-18T11:37:43.219Z,16.30
2022-09-18T11:40:33.519Z,16.30
2022-09-18T11:43:05.436Z,16.40
2022-09-18T11:45:54.048Z,16.50
2022-09-18T11:48:43.932Z,16.40
2022-09-18T11:51:15.528Z,16.50
2022-09-18T11:53:44.533Z,16.60
2022-09-18T11:56:37.885Z,16.60
2022-09-18T11:59:29.323Z,16.60
2022-09-18T12:02:01.877Z,16.80
2022-09-18T12:04:49.398Z,17.00
2022-09-18T12:07:38.235Z,17.10
2022-09-18T12:10:13.995Z,17.30
2022-09-18T12:13:34.700Z,17.40
2022-09-18T12:16:15.914Z,17.40
2022-09-18T12:18:55.603Z,17.30
2022-09-18T12:21:38.693Z,17.20
2022-09-18T12:24:14.303Z,17.20
2022-09-18T12:26:55.439Z,17.20
2022-09-18T12:29:54.771Z,17.30
2022-09-18T12:32:25.035Z,17.40
2022-09-18T12:35:14.422Z,17.40
2022-09-18T12:37:42.675Z,17.50
2022-09-18T12:40:31.521Z,17.40
2022-09-18T12:43:06.203Z,17.40
2022-09-18T12:45:46.218Z,17.40
2022-09-18T12:48:28.061Z,17.30
2022-09-18T12:51:23.696Z,17.30
2022-09-18T12:54:28.111Z,17.50
2022-09-18T12:57:36.951Z,17.50
2022-09-18T13:00:14.018Z,17.40
2022-09-18T13:03:07.782Z,17.30
2022-09-18T13:05:34.497Z,17.10
2022-09-18T13:08:19.527Z,17.20
2022-09-18T13:10:47.364Z,17.20
2022-09-18T13:13:20.298Z,17.30
2022-09-18T13:15:59.964Z,17.50
2022-09-18T13:18:53.799Z,17.60
2022-09-18T13:21:27.086Z,17.50
2022-09-18T13:23:54.079Z,17.60
2022-09-18T13:26:21.729Z,17.50
2022-09-18T13:28:50.343Z,17.60
2022-09-18T13:31:35.331Z,17.80
2022-09-18T13:34:04.289Z,17.60
2022-09-18T13:36:35.813Z,17.50
2022-09-18T13:39:07.873Z,17.40
2022-09-18T13:41:48.396Z,17.20
2022-09-18T13:44:31.849Z,17.10
2022-09-18T13:47:08.717Z,17.20
2022-09-18T13:49:56.006Z,17.20
2022-09-18T13:52:34.900Z,17.20
2022-09-18T13:55:28.616Z,17.20
2022-09-18T13:58:35.637Z,17.10
2022-09-18T14:01:07.241Z,17.00
2022-09-18T14:03:36.473Z,17.10
2022-09-18T14:06:51.897Z,17.00
2022-09-18T14:09:55.578Z,17.10
2022-09-18T14:12:22.920Z,17.30
2022-09-18T14:15:19.619Z,17.50
2022-09-18T14:18:07.843Z,17.70
2022-09-18T14:20:34.975Z,17.70
2022-09-18T14:23:36.184Z,17.60
2022-09-18T14:26:08.234Z,17.50
2022-09-18T14:28:35.811Z,17.40
2022-09-18T14:31:27.937Z,17.40
2022-09-18T14:33:55.900Z,17.30
2022-09-18T14:36:22.633Z,17.30
2022-09-18T14:38:49.676Z,17.30
2022-09-18T14:41:34.320Z,17.30
2022-09-18T14:44:01.754Z,17.20
2022-09-18T14:46:28.697Z,17.30
2022-09-18T14:48:55.620Z,17.20
2022-09-18T14:51:29.546Z,17.10
2022-09-18T14:53:57.799Z,17.10
2022-09-18T14:56:27.339Z,17.20
2022-09-18T14:58:54.349Z,17.20
2022-09-18T15:01:26.554Z,17.20
2022-09-18T15:03:54.641Z,17.20
2022-09-18T15:06:24.234Z,17.20
2022-09-18T15:08:52.058Z,17.20
2022-09-18T15:11:20.601Z,17.30
2022-09-18T15:13:49.688Z,17.20
2022-09-18T15:16:27.373Z,17.10
2022-09-18T15:18:54.959Z,17.20
2022-09-18T15:21:30.972Z,17.10
2022-09-18T15:24:02.225Z,17.00
2022-09-18T15:26:40.711Z,17.20
2022-09-18T15:29:14.717Z,17.30
2022-09-18T15:31:41.629Z,17.50
2022-09-18T15:34:26.307Z,17.70
2022-09-18T15:37:01.329Z,17.60
2022-09-18T15:39:32.707Z,17.60
2022-09-18T15:42:24.056Z,17.80
2022-09-18T15:44:50.727Z,18.00
2022-09-18T15:47:28.218Z,18.50
2022-09-18T15:50:10.518Z,19.40
2022-09-18T15:52:47.719Z,20.50
2022-09-18T15:55:26.038Z,20.50
2022-09-18T15:57:55.339Z,19.70
2022-09-18T16:00:23.848Z,20.10
2022-09-18T16:02:55.376Z,20.30
2022-09-18T16:05:22.280Z,20.80
2022-09-18T16:07:55.961Z,20.40
2022-09-18T16:10:35.081Z,19.40
2022-09-18T16:13:14.284Z,19.00
2022-09-18T16:15:47.229Z,18.70
2022-09-18T16:18:27.177Z,18.20
2022-09-18T16:21:01.523Z,17.90
2022-09-18T16:23:50.423Z,17.80
2022-09-18T16:26:20.175Z,18.10
2022-09-18T16:28:52.097Z,18.20
2022-09-18T16:31:21.268Z,18.10
2022-09-18T16:34:02.133Z,18.00
2022-09-18T16:36:32.951Z,17.80
2022-09-18T16:39:01.493Z,17.70
2022-09-18T16:41:31.420Z,17.50
2022-09-18T16:43:58.216Z,17.50
2022-09-18T16:46:39.412Z,17.40
2022-09-18T16:49:06.511Z,17.40
2022-09-18T16:51:33.223Z,17.50
2022-09-18T16:54:00.000Z,17.50
2022-09-18T16:56:33.893Z,17.40
2022-09-18T16:59:01.485Z,17.30
2022-09-18T17:01:33.410Z,17.20
2022-09-18T17:04:10.453Z,17.10
2022-09-18T17:06:37.402Z,17.10
2022-09-18T17:09:04.261Z,17.10
2022-09-18T17:11:31.023Z,17.10
2022-09-18T17:13:58.017Z,17.10
2022-09-18T17:16:43.421Z,17.00
2022-09-18T17:19:13.555Z,17.00
2022-09-18T17:21:41.576Z,17.10
2022-09-18T17:24:08.757Z,17.10
2022-09-18T17:26:36.178Z,17.10
2022-09-18T17:29:02.954Z,17.10
2022-09-18T17:31:29.822Z,17.10
2022-09-18T17:33:56.692Z,17.10
2022-09-18T17:36:23.479Z,17.10
2022-09-18T17:38:50.231Z,17.00
2022-09-18T17:41:18.225Z,17.00
2022-09-18T17:43:45.101Z,16.90
2022-09-18T17:46:12.678Z,16.90
2022-09-18T17:48:39.461Z,16.80
2022-09-18T17:51:11.917Z,16.80
2022-09-18T17:53:39.864Z,16.80
2022-09-18T17:56:09.985Z,16.80
2022-09-18T17:58:40.485Z,16.80
2022-09-18T18:01:25.167Z,16.70
2022-09-18T18:03:51.897Z,16.70
2022-09-18T18:06:21.684Z,16.70
2022-09-18T18:08:50.981Z,16.70
2022-09-18T18:11:19.806Z,16.70
2022-09-18T18:13:46.985Z,16.70
2022-09-18T18:16:15.405Z,16.60
2022-09-18T18:18:42.654Z,16.50
2022-09-18T18:21:09.717Z,16.30
2022-09-18T18:23:39.278Z,16.20
2022-09-18T18:26:07.387Z,16.00
2022-09-18T18:28:34.671Z,15.90
2022-09-18T18:31:03.747Z,15.90
2022-09-18T18:33:32.310Z,15.90
2022-09-18T18:36:13.188Z,15.90
2022-09-18T18:38:40.885Z,16.00
2022-09-18T18:41:07.909Z,16.00
2022-09-18T18:43:35.834Z,16.10
2022-09-18T18:46:04.188Z,16.10
2022-09-18T18:48:32.104Z,16.20
2022-09-18T18:50:59.447Z,16.20
2022-09-18T18:53:26.566Z,16.20
2022-09-18T18:55:54.324Z,16.10
2022-09-18T18:58:21.031Z,16.20
2022-09-18T19:00:47.834Z,16.20
2022-09-18T19:03:14.964Z,16.20
2022-09-18T19:05:41.857Z,16.20
2022-09-18T19:08:09.307Z,16.20
2022-09-18T19:10:36.373Z,16.20
2022-09-18T19:13:03.132Z,16.20
2022-09-18T19:15:29.919Z,16.20
2022-09-18T19:18:00.383Z,16.10
2022-09-18T19:20:27.104Z,16.10
2022-09-18T19:22:56.847Z,16.10
2022-09-18T19:25:26.896Z,16.10
2022-09-18T19:27:57.021Z,16.00
2022-09-18T19:30:24.229Z,16.00
2022-09-18T19:32:55.393Z,15.90
2022-09-18T19:35:22.482Z,15.90
2022-09-18T19:37:49.684Z,15.80
2022-09-18T19:40:19.221Z,15.70
2022-09-18T19:42:50.194Z,15.70
2022-09-18T19:45:18.359Z,15.60
2022-09-18T19:47:48.691Z,15.50
2022-09-18T19:50:27.162Z,15.50
2022-09-18T19:52:53.989Z,15.40
2022-09-18T19:55:20.894Z,15.40
2022-09-18T19:57:52.714Z,15.30
2022-09-18T20:00:19.501Z,15.30
2022-09-18T20:02:46.749Z,15.30
2022-09-18T20:05:13.515Z,15.20
2022-09-18T20:07:42.662Z,15.20
2022-09-18T20:10:11.715Z,15.10
2022-09-18T20:12:40.104Z,15.10
2022-09-18T20:15:08.239Z,15.10
2022-09-18T20:17:35.280Z,15.00
2022-09-18T20:20:02.336Z,15.00
2022-09-18T20:22:29.068Z,15.00
2022-09-18T20:24:55.871Z,14.90
2022-09-18T20:27:23.646Z,14.90
2022-09-18T20:29:50.868Z,14.80
2022-09-18T20:32:17.592Z,14.80
2022-09-18T20:34:47.790Z,14.80
2022-09-18T20:37:14.746Z,14.70
2022-09-18T20:39:41.504Z,14.70
2022-09-18T20:42:08.296Z,14.70
2022-09-18T20:44:35.359Z,14.70
2022-09-18T20:47:05.299Z,14.50
2022-09-18T20:49:32.412Z,14.50
2022-09-18T20:52:03.325Z,14.40
2022-09-18T20:54:30.523Z,14.40
2022-09-18T20:56:57.782Z,14.30
2022-09-18T20:59:25.023Z,14.30
2022-09-18T21:01:52.071Z,14.20
2022-09-18T21:04:20.224Z,14.10
2022-09-18T21:06:55.226Z,14.10
2022-09-18T21:09:23.436Z,14.00
2022-09-18T21:11:50.199Z,14.00
2022-09-18T21:14:20.142Z,14.00
2022-09-18T21:16:47.205Z,13.90
2022-09-18T21:19:17.032Z,13.90
2022-09-18T21:21:43.862Z,13.90
2022-09-18T21:24:10.925Z,13.80
2022-09-18T21:26:42.663Z,13.80
2022-09-18T21:29:17.670Z,13.80
2022-09-18T21:31:45.562Z,13.70
2022-09-18T21:34:23.389Z,13.70
2022-09-18T21:36:58.795Z,13.70
2022-09-18T21:39:28.103Z,13.70
2022-09-18T21:41:55.546Z,13.60
2022-09-18T21:44:27.145Z,13.60
2022-09-18T21:46:58.826Z,13.60
2022-09-18T21:49:26.117Z,13.60
2022-09-18T21:51:58.203Z,13.60
2022-09-18T21:54:25.020Z,13.50
2022-09-18T21:56:51.988Z,13.60
2022-09-18T21:59:25.625Z,13.50
2022-09-18T22:01:55.787Z,13.50
2022-09-18T22:04:26.169Z,13.50
2022-09-18T22:06:55.398Z,13.50
2022-09-18T22:09:27.038Z,13.40
2022-09-18T22:11:53.848Z,13.40
2022-09-18T22:14:28.705Z,13.40
2022-09-18T22:16:56.483Z,13.30
2022-09-18T22:19:23.228Z,13.30
2022-09-18T22:21:50.613Z,13.30
2022-09-18T22:24:22.465Z,13.30
2022-09-18T22:26:54.946Z,13.30
2022-09-18T22:29:26.617Z,13.20
2022-09-18T22:31:53.467Z,13.20
2022-09-18T22:34:23.113Z,13.10
2022-09-18T22:36:50.277Z,13.10
2022-09-18T22:39:17.636Z,13.10
2022-09-18T22:41:44.593Z,13.10
2022-09-18T22:44:11.532Z,13.00
2022-09-18T22:46:39.998Z,13.00
2022-09-18T22:49:06.953Z,13.00
2022-09-18T22:51:33.678Z,13.00
2022-09-18T22:54:07.457Z,12.90
2022-09-18T22:56:38.868Z,12.90
2022-09-18T22:59:05.746Z,12.90
2022-09-18T23:01:42.545Z,12.80
2022-09-18T23:04:09.972Z,12.80
2022-09-18T23:06:36.809Z,12.80
2022-09-18T23:09:04.666Z,12.80
2022-09-18T23:11:32.282Z,12.80
2022-09-18T23:14:02.124Z,12.80
2022-09-18T23:16:29.705Z,12.70
2022-09-18T23:19:01.422Z,12.60
2022-09-18T23:21:28.984Z,12.60
2022-09-18T23:23:56.117Z,12.40
2022-09-18T23:26:24.475Z,12.40
2022-09-18T23:28:52.703Z,12.30
2022-09-18T23:31:21.581Z,12.20
2022-09-18T23:33:53.336Z,12.20
2022-09-18T23:36:34.038Z,12.10
2022-09-18T23:39:10.362Z,12.10
2022-09-18T23:41:38.296Z,12.00
2022-09-18T23:44:06.758Z,11.90
2022-09-18T23:46:34.007Z,11.80
2022-09-18T23:49:00.823Z,11.80
2022-09-18T23:51:31.809Z,11.80
2022-09-18T23:54:00.332Z,11.80
2022-09-18T23:56:29.145Z,11.80
2022-09-18T23:58:57.802Z,11.80
